Mount Moriah, Missouri
Current Conditions -  °F | °C
As of 8:53 PM on Wednesday 26 Nov 2014 (Local Time) from KLWD Reporting Station
Overcast Overcast  
Wind Chill: 13°   Ceiling: 1000
Heat Index: 27°   Visibility: 9mi
Dew Point: 23°   Wind: 21mph
Humidity: 85%   Direction: 350°N
Pressure: 30.28"   Gusts: 26mph
Location:  40.33°N, 93.8°W
Report Text: KLWD 270253Z AUTO 35018G23KT 9SM OVC010 M03/M05 A3028 RMK AO2 SLP267 T10281050 51040
Loading
Personal Weather Stations






























Interactive Weather Map New forecast layout! Learn more

10-Day Weather Forecast

Advertisements
Track Severe Weather on mobile